Time;durP1;ratioP1;P1;durP2;ratioP2;P2;SDS_P1;SDS_P2;PMS_P1;PMS_P2;Temp;Humidity;BMP_temperature;BMP_pressure;BME280_temperature;BME280_humidity;BME280_pressure;Samples;Min_cycle;Max_cycle;Signal;HPM_P1;HPM_P2
2021/05/08 00:00:28;;;;;;;5.80;1.92;;;;;;;;;;10336079;28;20052;-58
2021/05/08 00:05:25;;;;;;;4.72;1.95;;;;;;;;;;10334481;28;20040;-59
2021/05/08 00:10:23;;;;;;;4.82;2.03;;;;;;;;;;10338337;28;20040;-58
2021/05/08 00:15:20;;;;;;;4.57;1.80;;;;;;;;;;10336983;28;20070;-58
2021/05/08 00:20:18;;;;;;;9.60;2.30;;;;;;;;;;10337473;28;20040;-58
2021/05/08 00:25:16;;;;;;;2.75;1.70;;;;;;;;;;10336357;28;20040;-59
2021/05/08 00:30:14;;;;;;;5.03;2.45;;;;;;;;;;10336205;28;20037;-59
2021/05/08 00:35:11;;;;;;;8.75;1.95;;;;;;;;;;10338180;28;20080;-57
2021/05/08 00:40:10;;;;;;;2.00;1.73;;;;;;;;;;10332167;28;20036;-59
2021/05/08 00:45:08;;;;;;;4.13;1.95;;;;;;;;;;10337753;28;20060;-59
2021/05/08 00:50:06;;;;;;;3.55;1.75;;;;;;;;;;10336404;28;20044;-59
2021/05/08 00:55:04;;;;;;;7.20;2.25;;;;;;;;;;10336684;28;20037;-57
2021/05/08 01:00:02;;;;;;;4.72;1.50;;;;;;;;;;10335938;28;20086;-58
2021/05/08 01:05:02;;;;;;;4.80;2.05;;;;;;;;;;10334428;28;20052;-58
2021/05/08 01:10:00;;;;;;;3.30;1.85;;;;;;;;;;10335156;28;20040;-59
2021/05/08 01:14:58;;;;;;;3.90;2.15;;;;;;;;;;10333418;28;20044;-58
2021/05/08 01:19:57;;;;;;;5.25;2.13;;;;;;;;;;10335257;28;20233;-59
2021/05/08 01:24:55;;;;;;;10.95;2.22;;;;;;;;;;10338076;28;20493;-59
2021/05/08 01:29:54;;;;;;;5.15;2.45;;;;;;;;;;10338054;28;20044;-59
2021/05/08 01:34:52;;;;;;;3.58;1.88;;;;;;;;;;10344212;28;20052;-59
2021/05/08 01:39:49;;;;;;;6.00;2.15;;;;;;;;;;10342946;28;20078;-59
2021/05/08 01:44:48;;;;;;;5.38;2.72;;;;;;;;;;10343072;28;20064;-59
2021/05/08 01:49:46;;;;;;;8.15;2.50;;;;;;;;;;10341476;28;20047;-59
2021/05/08 01:54:43;;;;;;;9.38;2.42;;;;;;;;;;10341854;28;20041;-59
2021/05/08 01:59:41;;;;;;;6.13;2.38;;;;;;;;;;10341491;28;20084;-59
2021/05/08 02:04:40;;;;;;;6.45;2.67;;;;;;;;;;10337428;28;20520;-59
2021/05/08 02:09:38;;;;;;;8.15;2.88;;;;;;;;;;10343085;28;20044;-59
2021/05/08 02:14:36;;;;;;;10.75;3.17;;;;;;;;;;10339821;28;20067;-59
2021/05/08 02:19:34;;;;;;;5.25;3.08;;;;;;;;;;10341954;28;20094;-59
2021/05/08 02:24:33;;;;;;;5.85;2.75;;;;;;;;;;10339793;28;20039;-59
2021/05/08 02:29:31;;;;;;;6.78;3.00;;;;;;;;;;10338138;28;20051;-58
2021/05/08 02:34:29;;;;;;;6.05;3.00;;;;;;;;;;10339217;28;20158;-59
2021/05/08 02:39:26;;;;;;;7.50;3.28;;;;;;;;;;10340154;28;20076;-59
2021/05/08 02:44:25;;;;;;;11.55;3.28;;;;;;;;;;10341879;28;20032;-58
2021/05/08 02:49:23;;;;;;;5.57;3.20;;;;;;;;;;10335444;28;20040;-58
2021/05/08 02:54:20;;;;;;;5.28;3.28;;;;;;;;;;10341057;28;20087;-58
2021/05/08 02:59:18;;;;;;;8.90;3.63;;;;;;;;;;10339278;28;20083;-58
2021/05/08 03:04:16;;;;;;;6.65;3.42;;;;;;;;;;10338004;28;20072;-58
2021/05/08 03:09:14;;;;;;;8.27;3.85;;;;;;;;;;10338053;28;20063;-59
2021/05/08 03:14:13;;;;;;;5.95;3.72;;;;;;;;;;10336968;28;20064;-59
2021/05/08 03:19:21;;;;;;;8.10;2.55;;;;;;;;;;10337344;28;20500;-58
2021/05/08 03:24:18;;;;;;;4.63;2.83;;;;;;;;;;10337512;28;20048;-58
2021/05/08 03:29:18;;;;;;;5.25;2.88;;;;;;;;;;10336870;28;20036;-59
2021/05/08 03:34:15;;;;;;;6.35;2.83;;;;;;;;;;10322320;28;20067;-58
2021/05/08 03:39:13;;;;;;;8.18;1.77;;;;;;;;;;10315118;28;20469;-58
2021/05/08 03:44:11;;;;;;;1.67;1.08;;;;;;;;;;10328200;28;20072;-58
2021/05/08 03:49:08;;;;;;;3.78;1.27;;;;;;;;;;10331824;28;20067;-58
2021/05/08 03:54:06;;;;;;;2.65;1.40;;;;;;;;;;10324615;28;20071;-59
2021/05/08 03:59:04;;;;;;;2.03;1.10;;;;;;;;;;10327259;28;20068;-58
2021/05/08 04:04:02;;;;;;;7.45;1.85;;;;;;;;;;10331857;28;20044;-58
2021/05/08 04:08:59;;;;;;;9.20;4.32;;;;;;;;;;10326166;28;20341;-58
2021/05/08 04:13:57;;;;;;;9.73;1.88;;;;;;;;;;10320965;28;20459;-58
2021/05/08 04:18:55;;;;;;;4.60;1.30;;;;;;;;;;10312972;28;20072;-58
2021/05/08 04:23:52;;;;;;;3.00;1.15;;;;;;;;;;10324671;28;20072;-58
2021/05/08 04:28:50;;;;;;;2.17;0.88;;;;;;;;;;10315881;28;20076;-58
2021/05/08 04:33:48;;;;;;;5.32;1.00;;;;;;;;;;10328931;28;20036;-59
2021/05/08 04:38:46;;;;;;;10.52;1.20;;;;;;;;;;10331572;28;20244;-58
2021/05/08 04:43:44;;;;;;;7.63;3.28;;;;;;;;;;10333582;28;20060;-58
2021/05/08 04:48:41;;;;;;;6.00;1.02;;;;;;;;;;10333251;28;20083;-59
2021/05/08 04:53:38;;;;;;;6.13;1.23;;;;;;;;;;10329816;28;20040;-59
2021/05/08 04:58:36;;;;;;;3.63;1.10;;;;;;;;;;10338695;28;20095;-59
2021/05/08 05:03:35;;;;;;;5.13;1.30;;;;;;;;;;10342138;28;20051;-58
2021/05/08 05:08:32;;;;;;;10.77;2.47;;;;;;;;;;10342156;28;20070;-58
2021/05/08 05:13:29;;;;;;;7.47;1.45;;;;;;;;;;10342609;28;20489;-58
2021/05/08 05:18:31;;;;;;;6.80;1.25;;;;;;;;;;10341978;28;20071;-60
2021/05/08 05:23:28;;;;;;;3.08;1.33;;;;;;;;;;10336881;28;20063;-59
2021/05/08 05:28:27;;;;;;;5.53;1.00;;;;;;;;;;10342875;28;20309;-59
2021/05/08 05:33:25;;;;;;;8.60;1.45;;;;;;;;;;10341177;28;20074;-58
2021/05/08 05:38:24;;;;;;;4.72;1.10;;;;;;;;;;10341296;28;20076;-58
2021/05/08 05:43:21;;;;;;;5.50;1.55;;;;;;;;;;10341275;28;20051;-58
2021/05/08 05:48:20;;;;;;;8.32;1.50;;;;;;;;;;10342046;28;20558;-58
2021/05/08 05:53:17;;;;;;;3.63;1.23;;;;;;;;;;10328551;28;20071;-58
2021/05/08 05:58:16;;;;;;;9.32;2.10;;;;;;;;;;10329199;28;20095;-58
2021/05/08 06:03:13;;;;;;;3.03;1.50;;;;;;;;;;10341667;28;20066;-57
2021/05/08 06:08:11;;;;;;;7.57;1.10;;;;;;;;;;10331131;28;20072;-57
2021/05/08 06:13:08;;;;;;;4.32;1.40;;;;;;;;;;10327358;28;20486;-57
2021/05/08 06:18:07;;;;;;;7.95;1.20;;;;;;;;;;10330482;28;20076;-57
2021/05/08 06:23:04;;;;;;;7.80;4.25;;;;;;;;;;10339059;28;20442;-57
2021/05/08 06:28:01;;;;;;;2.97;1.13;;;;;;;;;;10340563;28;20039;-58
2021/05/08 06:32:59;;;;;;;7.80;1.00;;;;;;;;;;10338091;28;20387;-55
2021/05/08 06:37:58;;;;;;;6.93;1.52;;;;;;;;;;10334744;28;20078;-57
2021/05/08 06:42:55;;;;;;;4.82;1.58;;;;;;;;;;10339717;28;20076;-53
2021/05/08 06:47:59;;;;;;;2.58;1.08;;;;;;;;;;10338069;28;20055;-56
2021/05/08 06:52:57;;;;;;;4.70;1.40;;;;;;;;;;10339203;28;20072;-57
2021/05/08 06:57:56;;;;;;;3.50;1.52;;;;;;;;;;10337160;28;20457;-58
2021/05/08 07:02:53;;;;;;;7.20;1.65;;;;;;;;;;10337700;28;20075;-59
2021/05/08 07:08:00;;;;;;;1.70;1.35;;;;;;;;;;10337830;28;20036;-56
2021/05/08 07:12:57;;;;;;;3.80;1.23;;;;;;;;;;10338086;28;20037;-56
2021/05/08 07:18:01;;;;;;;7.80;3.38;;;;;;;;;;10336565;28;20079;-56
2021/05/08 07:23:00;;;;;;;7.90;1.77;;;;;;;;;;10337812;28;20087;-56
2021/05/08 07:28:07;;;;;;;2.85;1.42;;;;;;;;;;10335428;28;20497;-56
2021/05/08 07:33:04;;;;;;;6.65;2.42;;;;;;;;;;10332922;28;20076;-56
2021/05/08 07:38:03;;;;;;;2.33;0.80;;;;;;;;;;10337517;28;20086;-57
2021/05/08 07:43:00;;;;;;;7.22;1.67;;;;;;;;;;10335661;28;20060;-53
2021/05/08 07:47:58;;;;;;;3.45;1.65;;;;;;;;;;10336387;28;20045;-55
2021/05/08 07:52:56;;;;;;;4.75;2.63;;;;;;;;;;10336324;28;20523;-54
2021/05/08 07:57:54;;;;;;;2.55;1.80;;;;;;;;;;10335050;28;20080;-56
2021/05/08 08:02:52;;;;;;;6.00;2.58;;;;;;;;;;10336820;28;20048;-55
2021/05/08 08:07:50;;;;;;;1.88;1.10;;;;;;;;;;10334739;28;20060;-55
2021/05/08 08:12:47;;;;;;;3.17;1.48;;;;;;;;;;10332516;28;20070;-55
2021/05/08 08:17:46;;;;;;;5.93;1.98;;;;;;;;;;10336054;28;20072;-52
2021/05/08 08:22:45;;;;;;;7.07;1.88;;;;;;;;;;10334805;28;20047;-55
2021/05/08 08:27:42;;;;;;;3.30;1.58;;;;;;;;;;10335179;28;20036;-56
2021/05/08 08:32:40;;;;;;;6.65;4.05;;;;;;;;;;10331443;28;20102;-57
2021/05/08 08:37:38;;;;;;;4.30;1.70;;;;;;;;;;10335492;28;20467;-55
2021/05/08 08:42:36;;;;;;;2.90;0.90;;;;;;;;;;10331990;28;20067;-55
2021/05/08 08:47:35;;;;;;;1.92;1.38;;;;;;;;;;10331433;28;20072;-57
2021/05/08 08:52:35;;;;;;;1.63;1.30;;;;;;;;;;10330221;28;20169;-55
2021/05/08 08:57:36;;;;;;;3.72;1.23;;;;;;;;;;10331549;28;20543;-57
2021/05/08 09:02:33;;;;;;;5.47;1.50;;;;;;;;;;10329078;28;20071;-55
2021/05/08 09:07:31;;;;;;;3.38;2.35;;;;;;;;;;10333634;28;20060;-56
2021/05/08 09:12:30;;;;;;;4.70;2.97;;;;;;;;;;10333066;28;20079;-58
2021/05/08 09:17:28;;;;;;;5.43;1.80;;;;;;;;;;10333564;28;20099;-55
2021/05/08 09:22:28;;;;;;;3.25;2.10;;;;;;;;;;10331857;28;20074;-55
2021/05/08 09:27:35;;;;;;;4.28;1.60;;;;;;;;;;10329328;28;20080;-55
2021/05/08 09:32:37;;;;;;;2.00;1.02;;;;;;;;;;10329684;28;20070;-56
2021/05/08 09:37:35;;;;;;;5.32;2.72;;;;;;;;;;10331098;28;20094;-55
2021/05/08 09:42:42;;;;;;;2.85;1.20;;;;;;;;;;10333207;28;20067;-58
2021/05/08 09:47:40;;;;;;;4.38;1.52;;;;;;;;;;10337660;28;20063;-57
2021/05/08 09:52:56;;;;;;;11.73;2.88;;;;;;;;;;10337930;28;20072;-58
2021/05/08 09:57:57;;;;;;;4.63;1.67;;;;;;;;;;10336011;28;20095;-56
2021/05/08 10:03:01;;;;;;;12.07;1.73;;;;;;;;;;10337621;28;20064;-56
2021/05/08 10:07:58;;;;;;;;;;;;;;;;;;10340156;28;20040;-58
2021/05/08 10:12:56;;;;;;;4.35;2.28;;;;;;;;;;10340740;28;19921;-59
2021/05/08 10:17:53;;;;;;;4.28;1.50;;;;;;;;;;10339718;28;20075;-60
2021/05/08 10:22:53;;;;;;;6.82;1.45;;;;;;;;;;10339155;28;20094;-59
2021/05/08 10:27:51;;;;;;;2.05;1.45;;;;;;;;;;10340073;28;20040;-59
2021/05/08 10:32:49;;;;;;;3.53;1.20;;;;;;;;;;10340996;28;20071;-60
2021/05/08 10:38:05;;;;;;;4.65;2.13;;;;;;;;;;10356658;28;20079;-60
2021/05/08 10:43:06;;;;;;;4.93;1.88;;;;;;;;;;10356328;28;20071;-59
2021/05/08 10:48:07;;;;;;;5.05;1.50;;;;;;;;;;10356215;28;20082;-58
2021/05/08 10:53:08;;;;;;;7.50;2.45;;;;;;;;;;10359303;28;20072;-60
2021/05/08 10:58:24;;;;;;;6.72;4.20;;;;;;;;;;10358541;28;20064;-60
2021/05/08 11:03:26;;;;;;;4.35;1.98;;;;;;;;;;10360075;28;20032;-59
2021/05/08 11:08:40;;;;;;;2.03;1.25;;;;;;;;;;10359351;28;20044;-60
2021/05/08 11:14:04;;;;;;;2.15;1.65;;;;;;;;;;10359697;28;20048;-60
2021/05/08 11:19:05;;;;;;;5.13;1.10;;;;;;;;;;10359265;28;20079;-60
2021/05/08 11:24:04;;;;;;;7.53;1.83;;;;;;;;;;10359289;28;20044;-60
2021/05/08 11:29:06;;;;;;;2.83;2.00;;;;;;;;;;10359013;28;20425;-61
2021/05/08 11:34:06;;;;;;;7.25;3.28;;;;;;;;;;10358653;28;20083;-60
2021/05/08 11:39:13;;;;;;;3.42;1.77;;;;;;;;;;10358337;28;20082;-60
2021/05/08 11:44:18;;;;;;;7.95;2.13;;;;;;;;;;10358385;28;20484;-59
2021/05/08 11:49:23;;;;;;;4.97;1.17;;;;;;;;;;10358105;28;20044;-58
2021/05/08 11:54:20;;;;;;;3.17;1.75;;;;;;;;;;10357970;28;20086;-59
2021/05/08 11:59:29;;;;;;;7.85;1.60;;;;;;;;;;10357013;28;20087;-60
2021/05/08 12:04:43;;;;;;;2.53;2.30;;;;;;;;;;10357660;28;20088;-60
2021/05/08 12:09:40;;;;;;;1.95;1.25;;;;;;;;;;10356369;28;20087;-59
2021/05/08 12:14:38;;;;;;;5.90;1.90;;;;;;;;;;10357396;28;20075;-59
2021/05/08 12:19:37;;;;;;;1.80;1.40;;;;;;;;;;10356942;28;20075;-58
2021/05/08 12:24:35;;;;;;;3.53;1.48;;;;;;;;;;10354827;28;20420;-58
2021/05/08 12:29:51;;;;;;;7.50;2.50;;;;;;;;;;10355841;28;20052;-60
2021/05/08 12:34:55;;;;;;;2.00;1.33;;;;;;;;;;10356918;28;20048;-60
2021/05/08 12:39:52;;;;;;;5.32;1.40;;;;;;;;;;10356744;28;20669;-60
2021/05/08 12:44:50;;;;;;;4.57;3.13;;;;;;;;;;10355549;28;20032;-58
2021/05/08 12:50:06;;;;;;;2.00;1.80;;;;;;;;;;10356663;28;20052;-59
2021/05/08 12:55:04;;;;;;;8.68;2.42;;;;;;;;;;10356435;28;20481;-58
2021/05/08 13:00:03;;;;;;;4.15;1.90;;;;;;;;;;10332374;28;20476;-58
2021/05/08 13:05:10;;;;;;;3.95;1.60;;;;;;;;;;10313783;28;20052;-61
2021/05/08 13:10:20;;;;;;;1.95;1.42;;;;;;;;;;10315275;28;20417;-60
2021/05/08 13:15:19;;;;;;;8.45;1.85;;;;;;;;;;10322667;28;20040;-58
2021/05/08 13:20:18;;;;;;;4.57;1.50;;;;;;;;;;10356824;28;20067;-59
2021/05/08 13:25:19;;;;;;;2.83;1.35;;;;;;;;;;10363898;28;20408;-58
2021/05/08 13:30:17;;;;;;;3.90;1.88;;;;;;;;;;10357576;28;20687;-60
2021/05/08 13:35:16;;;;;;;5.55;1.35;;;;;;;;;;10355599;28;20048;-59
2021/05/08 13:40:15;;;;;;;5.53;1.40;;;;;;;;;;10304969;28;20517;-59
2021/05/08 13:45:13;;;;;;;1.98;1.58;;;;;;;;;;10293498;28;20083;-59
2021/05/08 13:50:12;;;;;;;5.63;1.50;;;;;;;;;;10302370;28;20068;-58
2021/05/08 13:55:10;;;;;;;4.05;1.80;;;;;;;;;;10301082;28;20084;-54
2021/05/08 14:00:18;;;;;;;3.13;1.02;;;;;;;;;;10286600;28;20529;-54
2021/05/08 14:05:16;;;;;;;3.25;1.10;;;;;;;;;;10298185;28;20072;-59
2021/05/08 14:10:13;;;;;;;3.00;1.20;;;;;;;;;;10293359;28;20069;-57
2021/05/08 14:15:11;;;;;;;2.42;1.15;;;;;;;;;;10292724;28;20088;-59
2021/05/08 14:20:10;;;;;;;5.60;1.80;;;;;;;;;;10274329;28;20490;-60
2021/05/08 14:25:08;;;;;;;3.03;1.38;;;;;;;;;;10274364;28;20072;-60
2021/05/08 14:30:06;;;;;;;4.07;1.60;;;;;;;;;;10274199;28;20095;-58
2021/05/08 14:35:04;;;;;;;1.40;1.25;;;;;;;;;;10279714;28;20067;-59
2021/05/08 14:40:06;;;;;;;2.40;1.70;;;;;;;;;;10279261;28;20083;-59
2021/05/08 14:45:05;;;;;;;7.15;4.35;;;;;;;;;;10278926;28;20056;-59
2021/05/08 14:50:03;;;;;;;2.35;1.08;;;;;;;;;;10279509;28;20465;-59
2021/05/08 14:55:00;;;;;;;1.83;1.13;;;;;;;;;;10277013;28;20421;-60
2021/05/08 14:59:59;;;;;;;3.08;1.65;;;;;;;;;;10277612;28;20087;-59
2021/05/08 15:04:56;;;;;;;4.53;1.65;;;;;;;;;;10278296;28;20048;-59
2021/05/08 15:09:53;;;;;;;1.67;1.33;;;;;;;;;;10278250;28;20068;-59
2021/05/08 15:14:51;;;;;;;2.15;1.70;;;;;;;;;;10277014;28;20053;-59
2021/05/08 15:19:49;;;;;;;3.78;1.70;;;;;;;;;;10277744;28;20501;-60
2021/05/08 15:24:46;;;;;;;2.20;1.30;;;;;;;;;;10276138;28;20041;-60
2021/05/08 15:29:44;;;;;;;4.32;1.52;;;;;;;;;;10276660;28;20454;-60
2021/05/08 15:34:41;;;;;;;7.55;1.63;;;;;;;;;;10277606;28;20063;-59
2021/05/08 15:39:39;;;;;;;5.88;1.98;;;;;;;;;;10295276;28;20072;-59
2021/05/08 15:44:37;;;;;;;2.05;1.40;;;;;;;;;;10285114;28;20080;-59
2021/05/08 15:49:34;;;;;;;2.90;1.58;;;;;;;;;;10296429;28;20056;-59
2021/05/08 15:54:32;;;;;;;2.97;2.22;;;;;;;;;;10287585;28;20048;-57
2021/05/08 15:59:30;;;;;;;7.30;5.35;;;;;;;;;;10304728;28;20084;-59
2021/05/08 16:04:28;;;;;;;5.90;2.35;;;;;;;;;;10316258;28;20103;-57
2021/05/08 16:09:25;;;;;;;7.63;2.42;;;;;;;;;;10294577;28;20075;-59
2021/05/08 16:14:23;;;;;;;11.25;1.65;;;;;;;;;;10285190;28;20508;-59
2021/05/08 16:19:21;;;;;;;11.82;2.33;;;;;;;;;;10289862;28;20079;-59
2021/05/08 16:24:19;;;;;;;7.65;1.90;;;;;;;;;;10316188;28;20040;-59
2021/05/08 16:29:16;;;;;;;7.68;2.17;;;;;;;;;;10315362;28;20045;-58
2021/05/08 16:34:13;;;;;;;12.93;2.35;;;;;;;;;;10312016;28;20102;-57
2021/05/08 16:39:12;;;;;;;4.93;2.65;;;;;;;;;;10291630;28;20088;-60
2021/05/08 16:44:09;;;;;;;5.00;1.98;;;;;;;;;;10299029;28;20318;-58
2021/05/08 16:49:07;;;;;;;2.22;1.83;;;;;;;;;;10304137;28;20095;-58
2021/05/08 16:54:05;;;;;;;23.58;14.30;;;;;;;;;;10290094;28;20079;-59
2021/05/08 16:59:04;;;;;;;5.05;1.80;;;;;;;;;;10291927;28;20088;-55
2021/05/08 17:04:01;;;;;;;11.05;4.45;;;;;;;;;;10310650;28;20052;-58
2021/05/08 17:08:59;;;;;;;6.25;3.88;;;;;;;;;;10292464;28;20536;-58
2021/05/08 17:13:56;;;;;;;9.10;3.13;;;;;;;;;;10292220;28;20053;-59
2021/05/08 17:18:55;;;;;;;5.35;2.70;;;;;;;;;;10310749;28;20103;-59
2021/05/08 17:23:52;;;;;;;6.13;3.13;;;;;;;;;;10299631;28;20041;-60
2021/05/08 17:28:50;;;;;;;4.45;2.40;;;;;;;;;;10282428;28;20083;-57
2021/05/08 17:33:47;;;;;;;2.72;2.10;;;;;;;;;;10288718;28;20041;-58
2021/05/08 17:38:46;;;;;;;5.80;2.88;;;;;;;;;;10320531;28;20116;-58
2021/05/08 17:43:43;;;;;;;6.43;2.92;;;;;;;;;;10312182;28;20091;-58
2021/05/08 17:48:41;;;;;;;5.45;2.47;;;;;;;;;;10305091;28;20072;-56
2021/05/08 17:53:38;;;;;;;7.97;2.58;;;;;;;;;;10296868;28;20463;-57
2021/05/08 17:58:36;;;;;;;5.93;2.33;;;;;;;;;;10295528;28;20081;-58
2021/05/08 18:03:34;;;;;;;3.10;2.10;;;;;;;;;;10287701;28;20068;-57
2021/05/08 18:08:32;;;;;;;7.70;2.78;;;;;;;;;;10284184;28;20053;-58
2021/05/08 18:13:29;;;;;;;5.85;2.30;;;;;;;;;;10289553;28;20076;-56
2021/05/08 18:18:28;;;;;;;3.80;1.80;;;;;;;;;;10283001;28;20071;-57
2021/05/08 18:23:25;;;;;;;2.17;1.80;;;;;;;;;;10290550;28;20473;-56
2021/05/08 18:28:23;;;;;;;5.05;1.83;;;;;;;;;;10302697;28;20098;-57
2021/05/08 18:33:20;;;;;;;3.25;2.45;;;;;;;;;;10302666;28;20560;-57
2021/05/08 18:38:18;;;;;;;6.25;3.92;;;;;;;;;;10296632;28;20064;-59
2021/05/08 18:43:17;;;;;;;7.63;3.47;;;;;;;;;;10310120;28;20075;-58
2021/05/08 18:48:14;;;;;;;6.00;2.97;;;;;;;;;;10313648;28;20115;-55
2021/05/08 18:53:12;;;;;;;14.10;10.80;;;;;;;;;;10322333;28;20489;-55
2021/05/08 18:58:10;;;;;;;5.38;3.78;;;;;;;;;;10316296;28;20076;-57
2021/05/08 19:03:07;;;;;;;3.35;1.92;;;;;;;;;;10335096;28;20072;-58
2021/05/08 19:08:07;;;;;;;5.53;2.38;;;;;;;;;;10325920;28;20531;-58
2021/05/08 19:13:05;;;;;;;7.78;3.40;;;;;;;;;;10301818;28;20087;-56
2021/05/08 19:18:03;;;;;;;6.28;3.90;;;;;;;;;;10308113;28;20079;-58
2021/05/08 19:23:00;;;;;;;9.27;2.15;;;;;;;;;;10333927;28;20445;-55
2021/05/08 19:27:58;;;;;;;11.80;8.38;;;;;;;;;;10311678;28;20056;-54
2021/05/08 19:32:55;;;;;;;9.60;3.60;;;;;;;;;;10298418;28;20441;-57
2021/05/08 19:37:53;;;;;;;3.30;1.85;;;;;;;;;;10296975;28;20076;-55
2021/05/08 19:42:51;;;;;;;2.80;1.77;;;;;;;;;;10304856;28;20071;-57
2021/05/08 19:47:48;;;;;;;22.13;10.88;;;;;;;;;;10327479;28;20064;-54
2021/05/08 19:52:47;;;;;;;3.75;2.42;;;;;;;;;;10331829;28;20063;-58
2021/05/08 19:57:45;;;;;;;1.90;1.52;;;;;;;;;;10334690;28;20082;-58
2021/05/08 20:02:42;;;;;;;3.00;1.98;;;;;;;;;;10288190;28;20614;-58
2021/05/08 20:07:40;;;;;;;2.85;2.53;;;;;;;;;;10310184;28;20072;-58
2021/05/08 20:12:37;;;;;;;3.90;1.60;;;;;;;;;;10315251;28;20071;-56
2021/05/08 20:17:38;;;;;;;3.22;1.92;;;;;;;;;;10282058;28;21264;-54
2021/05/08 20:22:35;;;;;;;5.35;1.60;;;;;;;;;;10317746;28;20076;-56
2021/05/08 20:27:32;;;;;;;4.45;2.70;;;;;;;;;;10287878;28;20060;-58
2021/05/08 20:32:30;;;;;;;4.50;1.80;;;;;;;;;;10291331;28;20073;-56
2021/05/08 20:37:29;;;;;;;5.10;1.92;;;;;;;;;;10285900;28;20368;-57
2021/05/08 20:42:26;;;;;;;4.78;1.92;;;;;;;;;;10292045;28;20084;-58
2021/05/08 20:47:26;;;;;;;4.88;2.17;;;;;;;;;;10301652;28;20509;-57
2021/05/08 20:52:24;;;;;;;3.00;2.60;;;;;;;;;;10304193;28;20498;-53
2021/05/08 20:57:23;;;;;;;5.95;2.58;;;;;;;;;;10311700;28;20081;-56
2021/05/08 21:02:21;;;;;;;6.50;2.97;;;;;;;;;;10303067;28;20068;-56
2021/05/08 21:07:18;;;;;;;4.00;2.70;;;;;;;;;;10283740;28;20080;-52
2021/05/08 21:12:33;;;;;;;4.05;3.05;;;;;;;;;;10289702;28;20057;-54
2021/05/08 21:17:31;;;;;;;5.60;2.30;;;;;;;;;;10280730;28;20060;-57
2021/05/08 21:22:29;;;;;;;3.83;2.00;;;;;;;;;;10285002;28;20077;-55
2021/05/08 21:27:27;;;;;;;5.50;2.47;;;;;;;;;;10281728;28;20494;-53
2021/05/08 21:32:26;;;;;;;7.65;2.55;;;;;;;;;;10278828;28;20099;-56
2021/05/08 21:37:24;;;;;;;3.45;2.30;;;;;;;;;;10275448;28;20063;-56
2021/05/08 21:42:21;;;;;;;6.85;2.55;;;;;;;;;;10284408;28;20543;-56
2021/05/08 21:47:19;;;;;;;6.50;2.58;;;;;;;;;;10291990;28;20064;-55
2021/05/08 21:52:17;;;;;;;3.45;2.42;;;;;;;;;;10301476;28;20076;-57
2021/05/08 21:57:14;;;;;;;4.90;2.40;;;;;;;;;;10320133;28;20056;-57
2021/05/08 22:02:12;;;;;;;3.78;2.75;;;;;;;;;;10297216;28;20088;-58
2021/05/08 22:07:09;;;;;;;4.40;2.60;;;;;;;;;;10298382;28;20095;-56
2021/05/08 22:12:08;;;;;;;5.88;2.67;;;;;;;;;;10295833;28;20068;-58
2021/05/08 22:17:05;;;;;;;4.32;2.63;;;;;;;;;;10286950;28;20521;-59
2021/05/08 22:22:03;;;;;;;4.45;3.05;;;;;;;;;;10293201;28;20076;-59
2021/05/08 22:27:00;;;;;;;4.95;2.80;;;;;;;;;;10312577;28;20091;-59
2021/05/08 22:32:01;;;;;;;3.75;2.83;;;;;;;;;;10302090;28;20080;-58
2021/05/08 22:36:58;;;;;;;3.17;2.55;;;;;;;;;;10291761;28;20076;-59
2021/05/08 22:41:55;;;;;;;3.55;3.08;;;;;;;;;;10286298;28;20088;-59
2021/05/08 22:46:53;;;;;;;4.07;2.95;;;;;;;;;;10295177;28;20072;-59
2021/05/08 22:51:51;;;;;;;2.92;2.38;;;;;;;;;;10293960;28;20068;-58
2021/05/08 22:56:49;;;;;;;4.80;2.83;;;;;;;;;;10288693;28;20064;-59
2021/05/08 23:01:46;;;;;;;3.13;2.83;;;;;;;;;;10297325;28;20068;-54
2021/05/08 23:06:43;;;;;;;3.35;2.70;;;;;;;;;;10308630;28;20438;-57
2021/05/08 23:11:42;;;;;;;3.65;3.05;;;;;;;;;;10354621;28;20040;-56
2021/05/08 23:16:39;;;;;;;4.55;2.50;;;;;;;;;;10360962;28;20072;-57
2021/05/08 23:21:37;;;;;;;4.25;2.25;;;;;;;;;;10315649;28;20087;-58
2021/05/08 23:26:36;;;;;;;4.07;2.22;;;;;;;;;;10286227;28;20420;-59
2021/05/08 23:31:34;;;;;;;2.80;2.28;;;;;;;;;;10285095;28;20423;-58
2021/05/08 23:36:32;;;;;;;3.72;2.25;;;;;;;;;;10293323;28;20036;-58
2021/05/08 23:41:30;;;;;;;6.68;2.15;;;;;;;;;;10303781;28;20348;-58
2021/05/08 23:46:31;;;;;;;5.07;2.38;;;;;;;;;;10296705;28;20075;-57
2021/05/08 23:51:30;;;;;;;2.58;2.15;;;;;;;;;;10300346;28;20087;-58
2021/05/08 23:56:27;;;;;;;2.67;2.47;;;;;;;;;;10291612;28;20072;-59
